Terminal Aerodrome Forecast
Issued by NWS Detroit/Pontiac, MI

Home | Current Version | Previous Version | Text Only | Print | Product List | Glossary On
Versions: 1 2 3 4 5 6 7 8 9 10 11 12 13 14 15 16 17 18 19 20 21 22 23 24 25 26 27 28 29
000
FTUS43 KDTX 290856 AAB
TAFDTW
TAF AMD
KDTW 290856Z 2909/3012 16008KT P6SM -SHSN SCT035 OVC060
      TEMPO 2909/2910 4SM -SHSN BKN030
     FM291000 16008KT P6SM -SHSN BKN060 OVC080
      TEMPO 2910/2911 -FZRAPL BKN045
     FM291100 19011G19KT P6SM BKN100
     FM291900 20012G19KT P6SM BKN028 OVC040
     FM300000 21014KT P6SM OVC018=

USA.gov is the U.S. government's official web portal to all federal, state and local government web resources and services.